sensor_id;sensor_type;location;lat;lon;timestamp;temperature;humidity
24744;DHT22;12844;52.110;5.548;2024-02-26T00:01:40;16.70;57.10
24744;DHT22;12844;52.110;5.548;2024-02-26T00:04:06;16.70;57.00
24744;DHT22;12844;52.110;5.548;2024-02-26T00:06:32;16.70;57.00
24744;DHT22;12844;52.110;5.548;2024-02-26T00:08:58;16.70;57.00
24744;DHT22;12844;52.110;5.548;2024-02-26T00:11:23;16.70;57.00
24744;DHT22;12844;52.110;5.548;2024-02-26T00:13:49;16.70;57.00
24744;DHT22;12844;52.110;5.548;2024-02-26T00:16:15;16.70;57.00
24744;DHT22;12844;52.110;5.548;2024-02-26T00:18:40;16.70;57.00
24744;DHT22;12844;52.110;5.548;2024-02-26T00:21:06;16.70;57.00
24744;DHT22;12844;52.110;5.548;2024-02-26T00:23:32;16.70;57.00
24744;DHT22;12844;52.110;5.548;2024-02-26T00:25:58;16.70;57.00
24744;DHT22;12844;52.110;5.548;2024-02-26T00:28:23;16.70;57.00
24744;DHT22;12844;52.110;5.548;2024-02-26T00:30:50;16.70;57.10
24744;DHT22;12844;52.110;5.548;2024-02-26T00:33:21;16.70;57.00
24744;DHT22;12844;52.110;5.548;2024-02-26T00:35:47;16.70;57.00
24744;DHT22;12844;52.110;5.548;2024-02-26T00:38:13;16.60;57.00
24744;DHT22;12844;52.110;5.548;2024-02-26T00:40:38;16.70;57.10
24744;DHT22;12844;52.110;5.548;2024-02-26T00:43:04;16.60;57.00
24744;DHT22;12844;52.110;5.548;2024-02-26T00:45:30;16.70;57.10
24744;DHT22;12844;52.110;5.548;2024-02-26T00:47:57;16.70;57.10
24744;DHT22;12844;52.110;5.548;2024-02-26T00:50:23;16.60;57.00
24744;DHT22;12844;52.110;5.548;2024-02-26T00:52:49;16.60;57.10
24744;DHT22;12844;52.110;5.548;2024-02-26T00:55:14;16.60;57.00
24744;DHT22;12844;52.110;5.548;2024-02-26T00:57:40;16.60;57.10
24744;DHT22;12844;52.110;5.548;2024-02-26T01:00:07;16.60;57.10
24744;DHT22;12844;52.110;5.548;2024-02-26T01:02:34;16.60;57.10
24744;DHT22;12844;52.110;5.548;2024-02-26T01:05:00;16.60;57.10
24744;DHT22;12844;52.110;5.548;2024-02-26T01:07:25;16.60;57.00
24744;DHT22;12844;52.110;5.548;2024-02-26T01:09:51;16.60;57.10
24744;DHT22;12844;52.110;5.548;2024-02-26T01:12:16;16.60;57.00
24744;DHT22;12844;52.110;5.548;2024-02-26T01:14:42;16.60;57.00
24744;DHT22;12844;52.110;5.548;2024-02-26T01:17:08;16.50;57.00
24744;DHT22;12844;52.110;5.548;2024-02-26T01:19:33;16.50;57.00
24744;DHT22;12844;52.110;5.548;2024-02-26T01:21:59;16.50;57.00
24744;DHT22;12844;52.110;5.548;2024-02-26T01:24:24;16.50;57.00
24744;DHT22;12844;52.110;5.548;2024-02-26T01:26:50;16.50;57.00
24744;DHT22;12844;52.110;5.548;2024-02-26T01:29:16;16.60;57.10
24744;DHT22;12844;52.110;5.548;2024-02-26T01:31:41;16.50;57.10
24744;DHT22;12844;52.110;5.548;2024-02-26T01:34:07;16.50;57.10
24744;DHT22;12844;52.110;5.548;2024-02-26T01:36:32;16.60;57.10
24744;DHT22;12844;52.110;5.548;2024-02-26T01:39:00;16.60;57.10
24744;DHT22;12844;52.110;5.548;2024-02-26T01:41:25;16.50;57.00
24744;DHT22;12844;52.110;5.548;2024-02-26T01:43:51;16.60;57.10
24744;DHT22;12844;52.110;5.548;2024-02-26T01:46:17;16.50;57.00
24744;DHT22;12844;52.110;5.548;2024-02-26T01:48:44;16.50;57.10
24744;DHT22;12844;52.110;5.548;2024-02-26T01:51:12;16.50;57.10
24744;DHT22;12844;52.110;5.548;2024-02-26T01:53:40;16.50;57.10
24744;DHT22;12844;52.110;5.548;2024-02-26T01:56:06;16.50;57.10
24744;DHT22;12844;52.110;5.548;2024-02-26T01:58:32;16.50;57.60
24744;DHT22;12844;52.110;5.548;2024-02-26T02:00:59;16.50;57.10
24744;DHT22;12844;52.110;5.548;2024-02-26T02:03:26;16.50;57.10
24744;DHT22;12844;52.110;5.548;2024-02-26T02:05:52;16.50;57.10
24744;DHT22;12844;52.110;5.548;2024-02-26T02:08:18;16.50;57.00
24744;DHT22;12844;52.110;5.548;2024-02-26T02:10:44;16.50;57.10
24744;DHT22;12844;52.110;5.548;2024-02-26T02:13:13;16.50;57.10
24744;DHT22;12844;52.110;5.548;2024-02-26T02:15:39;16.50;57.10
24744;DHT22;12844;52.110;5.548;2024-02-26T02:18:05;16.50;57.00
24744;DHT22;12844;52.110;5.548;2024-02-26T02:20:35;16.50;57.10
24744;DHT22;12844;52.110;5.548;2024-02-26T02:23:01;16.40;57.00
24744;DHT22;12844;52.110;5.548;2024-02-26T02:25:27;16.50;57.10
24744;DHT22;12844;52.110;5.548;2024-02-26T02:27:54;16.50;57.10
24744;DHT22;12844;52.110;5.548;2024-02-26T02:30:28;16.40;57.10
24744;DHT22;12844;52.110;5.548;2024-02-26T02:32:55;16.50;57.10
24744;DHT22;12844;52.110;5.548;2024-02-26T02:35:22;16.40;57.10
24744;DHT22;12844;52.110;5.548;2024-02-26T02:37:52;16.40;57.10
24744;DHT22;12844;52.110;5.548;2024-02-26T02:40:18;16.40;57.00
24744;DHT22;12844;52.110;5.548;2024-02-26T02:42:43;16.40;57.00
24744;DHT22;12844;52.110;5.548;2024-02-26T02:45:09;16.40;57.00
24744;DHT22;12844;52.110;5.548;2024-02-26T02:47:38;16.40;57.00
24744;DHT22;12844;52.110;5.548;2024-02-26T02:50:04;16.40;57.00
24744;DHT22;12844;52.110;5.548;2024-02-26T02:52:30;16.40;57.10
24744;DHT22;12844;52.110;5.548;2024-02-26T02:54:56;16.40;57.00
24744;DHT22;12844;52.110;5.548;2024-02-26T02:57:22;16.40;57.00
24744;DHT22;12844;52.110;5.548;2024-02-26T02:59:47;16.40;57.00
24744;DHT22;12844;52.110;5.548;2024-02-26T03:02:13;16.40;57.00
24744;DHT22;12844;52.110;5.548;2024-02-26T03:04:39;16.40;57.00
24744;DHT22;12844;52.110;5.548;2024-02-26T03:07:04;16.40;57.10
24744;DHT22;12844;52.110;5.548;2024-02-26T03:09:30;16.40;57.00
24744;DHT22;12844;52.110;5.548;2024-02-26T03:11:56;16.40;57.00
24744;DHT22;12844;52.110;5.548;2024-02-26T03:14:21;16.40;57.10
24744;DHT22;12844;52.110;5.548;2024-02-26T03:19:27;16.40;57.00
24744;DHT22;12844;52.110;5.548;2024-02-26T03:21:53;16.40;57.10
24744;DHT22;12844;52.110;5.548;2024-02-26T03:24:18;16.40;57.10
24744;DHT22;12844;52.110;5.548;2024-02-26T03:26:44;16.30;57.00
24744;DHT22;12844;52.110;5.548;2024-02-26T03:29:10;16.30;57.00
24744;DHT22;12844;52.110;5.548;2024-02-26T03:31:35;16.30;57.00
24744;DHT22;12844;52.110;5.548;2024-02-26T03:34:01;16.30;57.00
24744;DHT22;12844;52.110;5.548;2024-02-26T03:36:27;16.30;57.00
24744;DHT22;12844;52.110;5.548;2024-02-26T03:38:52;16.30;57.60
24744;DHT22;12844;52.110;5.548;2024-02-26T03:41:18;16.30;57.00
24744;DHT22;12844;52.110;5.548;2024-02-26T03:43:43;16.30;57.00
24744;DHT22;12844;52.110;5.548;2024-02-26T03:46:10;16.30;57.60
24744;DHT22;12844;52.110;5.548;2024-02-26T03:48:37;16.30;57.00
24744;DHT22;12844;52.110;5.548;2024-02-26T03:51:04;16.30;57.00
24744;DHT22;12844;52.110;5.548;2024-02-26T03:53:29;16.30;57.00
24744;DHT22;12844;52.110;5.548;2024-02-26T03:55:55;16.30;57.00
24744;DHT22;12844;52.110;5.548;2024-02-26T03:58:21;16.30;57.60
24744;DHT22;12844;52.110;5.548;2024-02-26T04:00:47;16.30;57.00
24744;DHT22;12844;52.110;5.548;2024-02-26T04:03:13;16.30;57.00
24744;DHT22;12844;52.110;5.548;2024-02-26T04:05:39;16.30;57.00
24744;DHT22;12844;52.110;5.548;2024-02-26T04:08:05;16.30;57.00
24744;DHT22;12844;52.110;5.548;2024-02-26T04:10:33;16.30;57.00
24744;DHT22;12844;52.110;5.548;2024-02-26T04:13:00;16.30;57.00
24744;DHT22;12844;52.110;5.548;2024-02-26T04:15:26;16.20;56.90
24744;DHT22;12844;52.110;5.548;2024-02-26T04:17:52;16.30;56.90
24744;DHT22;12844;52.110;5.548;2024-02-26T04:20:17;16.30;56.90
24744;DHT22;12844;52.110;5.548;2024-02-26T04:22:43;16.30;56.90
24744;DHT22;12844;52.110;5.548;2024-02-26T04:25:09;16.20;56.90
24744;DHT22;12844;52.110;5.548;2024-02-26T04:27:34;16.20;57.00
24744;DHT22;12844;52.110;5.548;2024-02-26T04:30:00;16.20;56.90
24744;DHT22;12844;52.110;5.548;2024-02-26T04:32:25;16.30;57.60
24744;DHT22;12844;52.110;5.548;2024-02-26T04:34:51;16.30;56.90
24744;DHT22;12844;52.110;5.548;2024-02-26T04:37:16;16.20;56.90
24744;DHT22;12844;52.110;5.548;2024-02-26T04:39:42;16.20;56.90
24744;DHT22;12844;52.110;5.548;2024-02-26T04:42:08;16.20;57.60
24744;DHT22;12844;52.110;5.548;2024-02-26T04:44:33;16.20;56.90
24744;DHT22;12844;52.110;5.548;2024-02-26T04:46:59;16.20;56.90
24744;DHT22;12844;52.110;5.548;2024-02-26T04:49:27;16.20;56.90
24744;DHT22;12844;52.110;5.548;2024-02-26T04:51:52;16.20;57.00
24744;DHT22;12844;52.110;5.548;2024-02-26T04:54:19;16.20;57.50
24744;DHT22;12844;52.110;5.548;2024-02-26T04:56:44;16.20;56.90
24744;DHT22;12844;52.110;5.548;2024-02-26T04:59:10;16.20;56.80
24744;DHT22;12844;52.110;5.548;2024-02-26T05:01:36;16.20;56.90
24744;DHT22;12844;52.110;5.548;2024-02-26T05:04:02;16.20;56.80
24744;DHT22;12844;52.110;5.548;2024-02-26T05:06:28;16.20;56.80
24744;DHT22;12844;52.110;5.548;2024-02-26T05:08:54;16.20;56.80
24744;DHT22;12844;52.110;5.548;2024-02-26T05:11:20;16.20;56.90
24744;DHT22;12844;52.110;5.548;2024-02-26T05:13:45;16.20;56.80
24744;DHT22;12844;52.110;5.548;2024-02-26T05:16:11;16.20;56.90
24744;DHT22;12844;52.110;5.548;2024-02-26T05:18:37;16.20;56.80
24744;DHT22;12844;52.110;5.548;2024-02-26T05:21:03;16.20;56.80
24744;DHT22;12844;52.110;5.548;2024-02-26T05:23:29;16.20;56.80
24744;DHT22;12844;52.110;5.548;2024-02-26T05:25:54;16.20;56.80
24744;DHT22;12844;52.110;5.548;2024-02-26T05:28:20;16.20;56.80
24744;DHT22;12844;52.110;5.548;2024-02-26T05:30:46;16.20;56.80
24744;DHT22;12844;52.110;5.548;2024-02-26T05:33:12;16.20;57.40
24744;DHT22;12844;52.110;5.548;2024-02-26T05:35:37;16.20;56.90
24744;DHT22;12844;52.110;5.548;2024-02-26T05:38:03;16.20;56.80
24744;DHT22;12844;52.110;5.548;2024-02-26T05:40:29;16.10;56.80
24744;DHT22;12844;52.110;5.548;2024-02-26T05:42:55;16.20;56.90
24744;DHT22;12844;52.110;5.548;2024-02-26T05:45:21;16.20;57.50
24744;DHT22;12844;52.110;5.548;2024-02-26T05:47:47;16.20;56.80
24744;DHT22;12844;52.110;5.548;2024-02-26T05:50:13;16.20;57.50
24744;DHT22;12844;52.110;5.548;2024-02-26T05:52:40;16.10;56.80
24744;DHT22;12844;52.110;5.548;2024-02-26T05:55:06;16.10;57.40
24744;DHT22;12844;52.110;5.548;2024-02-26T05:57:32;16.10;56.90
24744;DHT22;12844;52.110;5.548;2024-02-26T05:59:58;16.10;56.90
24744;DHT22;12844;52.110;5.548;2024-02-26T06:02:29;16.10;56.80
24744;DHT22;12844;52.110;5.548;2024-02-26T06:04:55;16.10;56.90
24744;DHT22;12844;52.110;5.548;2024-02-26T06:07:21;16.10;56.80
24744;DHT22;12844;52.110;5.548;2024-02-26T06:09:46;16.10;57.30
24744;DHT22;12844;52.110;5.548;2024-02-26T06:12:12;16.10;56.80
24744;DHT22;12844;52.110;5.548;2024-02-26T06:14:37;16.10;56.80
24744;DHT22;12844;52.110;5.548;2024-02-26T06:17:03;16.10;56.90
24744;DHT22;12844;52.110;5.548;2024-02-26T06:19:29;16.10;56.80
24744;DHT22;12844;52.110;5.548;2024-02-26T06:21:54;16.10;56.80
24744;DHT22;12844;52.110;5.548;2024-02-26T06:24:20;16.10;57.40
24744;DHT22;12844;52.110;5.548;2024-02-26T06:26:47;16.10;56.80
24744;DHT22;12844;52.110;5.548;2024-02-26T06:29:13;16.10;56.80
24744;DHT22;12844;52.110;5.548;2024-02-26T06:31:39;16.10;56.90
24744;DHT22;12844;52.110;5.548;2024-02-26T06:34:04;16.10;56.80
24744;DHT22;12844;52.110;5.548;2024-02-26T06:36:30;16.10;56.80
24744;DHT22;12844;52.110;5.548;2024-02-26T06:38:57;16.10;56.80
24744;DHT22;12844;52.110;5.548;2024-02-26T06:41:23;16.10;56.80
24744;DHT22;12844;52.110;5.548;2024-02-26T06:43:54;16.10;56.80
24744;DHT22;12844;52.110;5.548;2024-02-26T06:46:19;16.10;56.80
24744;DHT22;12844;52.110;5.548;2024-02-26T06:48:45;16.10;56.80
24744;DHT22;12844;52.110;5.548;2024-02-26T06:51:10;16.00;56.70
24744;DHT22;12844;52.110;5.548;2024-02-26T06:53:36;16.10;56.80
24744;DHT22;12844;52.110;5.548;2024-02-26T06:56:02;16.10;56.70
24744;DHT22;12844;52.110;5.548;2024-02-26T06:58:27;16.10;56.70
24744;DHT22;12844;52.110;5.548;2024-02-26T07:00:53;16.00;56.70
24744;DHT22;12844;52.110;5.548;2024-02-26T07:03:18;16.00;56.70
24744;DHT22;12844;52.110;5.548;2024-02-26T07:05:44;16.10;56.70
24744;DHT22;12844;52.110;5.548;2024-02-26T07:08:11;16.00;56.70
24744;DHT22;12844;52.110;5.548;2024-02-26T07:10:37;16.00;56.70
24744;DHT22;12844;52.110;5.548;2024-02-26T07:13:02;16.00;56.70
24744;DHT22;12844;52.110;5.548;2024-02-26T07:15:28;16.00;56.70
24744;DHT22;12844;52.110;5.548;2024-02-26T07:17:53;16.00;56.70
24744;DHT22;12844;52.110;5.548;2024-02-26T07:20:19;16.00;56.70
24744;DHT22;12844;52.110;5.548;2024-02-26T07:22:45;16.00;56.70
24744;DHT22;12844;52.110;5.548;2024-02-26T07:25:10;16.00;56.80
24744;DHT22;12844;52.110;5.548;2024-02-26T07:27:39;16.00;56.70
24744;DHT22;12844;52.110;5.548;2024-02-26T07:30:06;16.00;56.80
24744;DHT22;12844;52.110;5.548;2024-02-26T07:32:33;16.00;56.70
24744;DHT22;12844;52.110;5.548;2024-02-26T07:34:58;16.00;56.70
24744;DHT22;12844;52.110;5.548;2024-02-26T07:37:24;16.00;56.70
24744;DHT22;12844;52.110;5.548;2024-02-26T07:39:50;16.00;56.70
24744;DHT22;12844;52.110;5.548;2024-02-26T07:42:15;16.00;56.60
24744;DHT22;12844;52.110;5.548;2024-02-26T07:44:41;16.00;56.70
24744;DHT22;12844;52.110;5.548;2024-02-26T07:47:09;16.00;56.70
24744;DHT22;12844;52.110;5.548;2024-02-26T07:49:35;16.00;56.70
24744;DHT22;12844;52.110;5.548;2024-02-26T07:52:00;16.00;56.60
24744;DHT22;12844;52.110;5.548;2024-02-26T07:54:26;16.00;56.60
24744;DHT22;12844;52.110;5.548;2024-02-26T07:56:51;16.00;56.60
24744;DHT22;12844;52.110;5.548;2024-02-26T07:59:17;16.00;56.60
24744;DHT22;12844;52.110;5.548;2024-02-26T08:01:43;16.00;56.60
24744;DHT22;12844;52.110;5.548;2024-02-26T08:04:09;16.00;56.60
24744;DHT22;12844;52.110;5.548;2024-02-26T08:06:34;16.00;56.60
24744;DHT22;12844;52.110;5.548;2024-02-26T08:09:00;16.00;56.60
24744;DHT22;12844;52.110;5.548;2024-02-26T08:11:26;16.00;56.60
24744;DHT22;12844;52.110;5.548;2024-02-26T08:13:53;16.00;56.50
24744;DHT22;12844;52.110;5.548;2024-02-26T08:16:19;16.00;56.50
24744;DHT22;12844;52.110;5.548;2024-02-26T08:18:44;16.00;56.50
24744;DHT22;12844;52.110;5.548;2024-02-26T08:21:10;16.00;56.50
24744;DHT22;12844;52.110;5.548;2024-02-26T08:23:35;16.00;56.50
24744;DHT22;12844;52.110;5.548;2024-02-26T08:26:01;16.10;56.60
24744;DHT22;12844;52.110;5.548;2024-02-26T08:28:27;16.00;56.50
24744;DHT22;12844;52.110;5.548;2024-02-26T08:30:52;16.00;56.50
24744;DHT22;12844;52.110;5.548;2024-02-26T08:33:18;16.00;56.50
24744;DHT22;12844;52.110;5.548;2024-02-26T08:35:43;16.00;56.50
24744;DHT22;12844;52.110;5.548;2024-02-26T08:38:09;16.00;56.50
24744;DHT22;12844;52.110;5.548;2024-02-26T08:40:35;16.00;56.50
24744;DHT22;12844;52.110;5.548;2024-02-26T08:43:00;16.00;56.50
24744;DHT22;12844;52.110;5.548;2024-02-26T08:45:26;16.00;56.50
24744;DHT22;12844;52.110;5.548;2024-02-26T08:47:52;16.00;56.50
24744;DHT22;12844;52.110;5.548;2024-02-26T08:50:18;16.00;56.50
24744;DHT22;12844;52.110;5.548;2024-02-26T08:52:43;16.00;56.50
24744;DHT22;12844;52.110;5.548;2024-02-26T08:55:11;16.00;56.60
24744;DHT22;12844;52.110;5.548;2024-02-26T08:57:38;16.00;56.50
24744;DHT22;12844;52.110;5.548;2024-02-26T09:00:05;16.00;56.50
24744;DHT22;12844;52.110;5.548;2024-02-26T09:02:30;16.00;56.50
24744;DHT22;12844;52.110;5.548;2024-02-26T09:04:56;16.00;57.20
24744;DHT22;12844;52.110;5.548;2024-02-26T09:07:22;16.00;56.50
24744;DHT22;12844;52.110;5.548;2024-02-26T09:09:48;16.00;57.10
24744;DHT22;12844;52.110;5.548;2024-02-26T09:12:13;16.00;56.50
24744;DHT22;12844;52.110;5.548;2024-02-26T09:14:39;16.00;56.50
24744;DHT22;12844;52.110;5.548;2024-02-26T09:17:04;16.00;57.20
24744;DHT22;12844;52.110;5.548;2024-02-26T09:19:31;16.00;56.50
24744;DHT22;12844;52.110;5.548;2024-02-26T09:21:57;15.90;56.50
24744;DHT22;12844;52.110;5.548;2024-02-26T09:24:26;16.00;57.20
24744;DHT22;12844;52.110;5.548;2024-02-26T09:26:52;16.00;57.10
24744;DHT22;12844;52.110;5.548;2024-02-26T09:39:31;16.00;56.40
24744;DHT22;12844;52.110;5.548;2024-02-26T09:41:57;16.00;56.40
24744;DHT22;12844;52.110;5.548;2024-02-26T09:44:25;16.00;56.40
24744;DHT22;12844;52.110;5.548;2024-02-26T09:46:52;16.00;56.40
24744;DHT22;12844;52.110;5.548;2024-02-26T09:49:21;16.00;56.40
24744;DHT22;12844;52.110;5.548;2024-02-26T09:51:49;16.00;56.40
24744;DHT22;12844;52.110;5.548;2024-02-26T09:54:17;16.00;56.40
24744;DHT22;12844;52.110;5.548;2024-02-26T09:56:43;16.00;56.40
24744;DHT22;12844;52.110;5.548;2024-02-26T09:59:15;16.00;56.50
24744;DHT22;12844;52.110;5.548;2024-02-26T10:01:42;16.00;56.50
24744;DHT22;12844;52.110;5.548;2024-02-26T10:04:10;16.00;56.50
24744;DHT22;12844;52.110;5.548;2024-02-26T10:06:37;16.00;56.50
24744;DHT22;12844;52.110;5.548;2024-02-26T10:09:03;16.00;56.40
24744;DHT22;12844;52.110;5.548;2024-02-26T10:11:32;16.00;56.40
24744;DHT22;12844;52.110;5.548;2024-02-26T10:13:58;16.00;56.40
24744;DHT22;12844;52.110;5.548;2024-02-26T10:16:25;16.00;56.40
24744;DHT22;12844;52.110;5.548;2024-02-26T10:18:54;15.90;56.40
24744;DHT22;12844;52.110;5.548;2024-02-26T10:21:22;16.00;56.40
24744;DHT22;12844;52.110;5.548;2024-02-26T10:23:48;16.00;56.50
24744;DHT22;12844;52.110;5.548;2024-02-26T10:26:14;15.90;56.40
24744;DHT22;12844;52.110;5.548;2024-02-26T10:28:44;16.00;56.40
24744;DHT22;12844;52.110;5.548;2024-02-26T10:31:11;16.00;56.40
24744;DHT22;12844;52.110;5.548;2024-02-26T10:33:38;16.00;56.40
24744;DHT22;12844;52.110;5.548;2024-02-26T10:36:07;16.00;56.40
24744;DHT22;12844;52.110;5.548;2024-02-26T10:38:34;16.00;56.40
24744;DHT22;12844;52.110;5.548;2024-02-26T10:41:04;15.90;56.40
24744;DHT22;12844;52.110;5.548;2024-02-26T10:43:31;15.90;56.30
24744;DHT22;12844;52.110;5.548;2024-02-26T10:45:57;15.90;56.90
24744;DHT22;12844;52.110;5.548;2024-02-26T10:48:23;16.00;56.40
24744;DHT22;12844;52.110;5.548;2024-02-26T10:50:49;16.00;56.30
24744;DHT22;12844;52.110;5.548;2024-02-26T10:53:19;16.00;56.30
24744;DHT22;12844;52.110;5.548;2024-02-26T10:56:06;16.00;56.40
24744;DHT22;12844;52.110;5.548;2024-02-26T10:58:32;15.90;56.40
24744;DHT22;12844;52.110;5.548;2024-02-26T11:00:57;16.00;56.40
24744;DHT22;12844;52.110;5.548;2024-02-26T11:03:25;15.90;56.40
24744;DHT22;12844;52.110;5.548;2024-02-26T11:05:50;16.00;56.40
24744;DHT22;12844;52.110;5.548;2024-02-26T11:08:20;15.90;56.30
24744;DHT22;12844;52.110;5.548;2024-02-26T11:10:53;16.00;56.30
24744;DHT22;12844;52.110;5.548;2024-02-26T11:13:19;16.00;56.30
24744;DHT22;12844;52.110;5.548;2024-02-26T11:15:46;16.00;57.00
24744;DHT22;12844;52.110;5.548;2024-02-26T11:18:15;16.00;56.30
24744;DHT22;12844;52.110;5.548;2024-02-26T11:20:41;15.90;56.20
24744;DHT22;12844;52.110;5.548;2024-02-26T11:23:07;16.00;56.30
24744;DHT22;12844;52.110;5.548;2024-02-26T11:25:35;16.00;56.20
24744;DHT22;12844;52.110;5.548;2024-02-26T11:28:04;15.90;56.20
24744;DHT22;12844;52.110;5.548;2024-02-26T11:30:34;15.90;56.20
24744;DHT22;12844;52.110;5.548;2024-02-26T11:33:01;15.90;56.20
24744;DHT22;12844;52.110;5.548;2024-02-26T11:35:28;15.90;56.20
24744;DHT22;12844;52.110;5.548;2024-02-26T11:37:55;15.90;56.20
24744;DHT22;12844;52.110;5.548;2024-02-26T11:40:23;15.90;56.20
24744;DHT22;12844;52.110;5.548;2024-02-26T11:42:50;15.90;56.20
24744;DHT22;12844;52.110;5.548;2024-02-26T11:48:19;15.90;56.20
24744;DHT22;12844;52.110;5.548;2024-02-26T11:50:52;15.90;56.20
24744;DHT22;12844;52.110;5.548;2024-02-26T11:53:28;15.90;56.20
24744;DHT22;12844;52.110;5.548;2024-02-26T11:56:19;15.90;56.00
24744;DHT22;12844;52.110;5.548;2024-02-26T11:58:46;15.90;56.10
24744;DHT22;12844;52.110;5.548;2024-02-26T12:04:05;15.90;56.20
24744;DHT22;12844;52.110;5.548;2024-02-26T12:06:38;15.90;56.20
24744;DHT22;12844;52.110;5.548;2024-02-26T12:09:05;15.90;56.30
24744;DHT22;12844;52.110;5.548;2024-02-26T12:11:31;15.90;56.30
24744;DHT22;12844;52.110;5.548;2024-02-26T12:13:56;15.90;56.90
24744;DHT22;12844;52.110;5.548;2024-02-26T12:16:35;15.90;56.20
24744;DHT22;12844;52.110;5.548;2024-02-26T12:19:07;15.90;56.10
24744;DHT22;12844;52.110;5.548;2024-02-26T12:21:34;15.90;56.10
24744;DHT22;12844;52.110;5.548;2024-02-26T12:24:12;15.90;56.20
24744;DHT22;12844;52.110;5.548;2024-02-26T12:26:38;15.90;56.20
24744;DHT22;12844;52.110;5.548;2024-02-26T12:29:04;15.90;56.10
24744;DHT22;12844;52.110;5.548;2024-02-26T12:31:31;15.90;56.20
24744;DHT22;12844;52.110;5.548;2024-02-26T12:33:57;15.90;56.20
24744;DHT22;12844;52.110;5.548;2024-02-26T12:36:22;15.90;56.20
24744;DHT22;12844;52.110;5.548;2024-02-26T12:38:50;15.90;56.20
24744;DHT22;12844;52.110;5.548;2024-02-26T12:41:16;15.90;56.20
24744;DHT22;12844;52.110;5.548;2024-02-26T12:43:42;15.90;56.10
24744;DHT22;12844;52.110;5.548;2024-02-26T12:46:08;15.90;56.20
24744;DHT22;12844;52.110;5.548;2024-02-26T12:48:33;15.90;56.20
24744;DHT22;12844;52.110;5.548;2024-02-26T12:50:59;15.90;56.20
24744;DHT22;12844;52.110;5.548;2024-02-26T12:53:26;15.90;56.00
24744;DHT22;12844;52.110;5.548;2024-02-26T12:55:55;15.90;56.10
24744;DHT22;12844;52.110;5.548;2024-02-26T12:58:22;15.90;56.00
24744;DHT22;12844;52.110;5.548;2024-02-26T13:00:51;15.90;56.70
24744;DHT22;12844;52.110;5.548;2024-02-26T13:03:17;15.90;56.20
24744;DHT22;12844;52.110;5.548;2024-02-26T13:05:43;15.90;56.10
24744;DHT22;12844;52.110;5.548;2024-02-26T13:08:10;15.90;56.10
24744;DHT22;12844;52.110;5.548;2024-02-26T13:10:42;16.00;56.10
24744;DHT22;12844;52.110;5.548;2024-02-26T13:13:08;15.90;55.90
24744;DHT22;12844;52.110;5.548;2024-02-26T13:15:34;15.90;56.00
24744;DHT22;12844;52.110;5.548;2024-02-26T13:18:12;15.90;56.00
24744;DHT22;12844;52.110;5.548;2024-02-26T13:20:38;15.90;56.00
24744;DHT22;12844;52.110;5.548;2024-02-26T13:23:12;15.90;56.10
24744;DHT22;12844;52.110;5.548;2024-02-26T13:25:38;15.90;56.10
24744;DHT22;12844;52.110;5.548;2024-02-26T13:28:17;15.80;56.00
24744;DHT22;12844;52.110;5.548;2024-02-26T13:30:57;15.90;56.10
24744;DHT22;12844;52.110;5.548;2024-02-26T13:33:23;15.90;56.10
24744;DHT22;12844;52.110;5.548;2024-02-26T13:35:50;15.80;56.80
24744;DHT22;12844;52.110;5.548;2024-02-26T13:38:16;15.80;56.10
24744;DHT22;12844;52.110;5.548;2024-02-26T13:40:42;15.90;55.90
24744;DHT22;12844;52.110;5.548;2024-02-26T13:43:07;15.90;56.00
24744;DHT22;12844;52.110;5.548;2024-02-26T13:45:34;15.90;56.10
24744;DHT22;12844;52.110;5.548;2024-02-26T13:48:10;15.90;56.00
24744;DHT22;12844;52.110;5.548;2024-02-26T13:50:37;15.90;56.00
24744;DHT22;12844;52.110;5.548;2024-02-26T13:53:03;15.90;56.70
24744;DHT22;12844;52.110;5.548;2024-02-26T13:55:30;15.90;56.10
24744;DHT22;12844;52.110;5.548;2024-02-26T13:57:58;15.90;56.10
24744;DHT22;12844;52.110;5.548;2024-02-26T14:00:24;16.00;55.90
24744;DHT22;12844;52.110;5.548;2024-02-26T14:02:50;15.90;55.90
24744;DHT22;12844;52.110;5.548;2024-02-26T14:05:16;15.90;55.90
24744;DHT22;12844;52.110;5.548;2024-02-26T14:07:42;15.90;56.00
24744;DHT22;12844;52.110;5.548;2024-02-26T14:10:09;15.90;56.00
24744;DHT22;12844;52.110;5.548;2024-02-26T14:12:37;15.90;56.10
24744;DHT22;12844;52.110;5.548;2024-02-26T14:15:03;15.90;56.10
24744;DHT22;12844;52.110;5.548;2024-02-26T14:17:30;15.90;56.00
24744;DHT22;12844;52.110;5.548;2024-02-26T14:19:56;15.90;56.00
24744;DHT22;12844;52.110;5.548;2024-02-26T14:22:21;15.90;56.00
24744;DHT22;12844;52.110;5.548;2024-02-26T14:24:47;15.90;56.00
24744;DHT22;12844;52.110;5.548;2024-02-26T14:27:13;15.90;56.00
24744;DHT22;12844;52.110;5.548;2024-02-26T14:29:43;15.90;56.00
24744;DHT22;12844;52.110;5.548;2024-02-26T14:32:12;15.90;56.00
24744;DHT22;12844;52.110;5.548;2024-02-26T14:34:38;15.90;55.90
24744;DHT22;12844;52.110;5.548;2024-02-26T14:37:04;15.90;56.00
24744;DHT22;12844;52.110;5.548;2024-02-26T14:39:31;15.90;55.90
24744;DHT22;12844;52.110;5.548;2024-02-26T14:41:57;15.90;55.90
24744;DHT22;12844;52.110;5.548;2024-02-26T14:44:23;15.90;55.90
24744;DHT22;12844;52.110;5.548;2024-02-26T14:46:49;16.00;55.80
24744;DHT22;12844;52.110;5.548;2024-02-26T14:49:15;15.90;55.90
24744;DHT22;12844;52.110;5.548;2024-02-26T14:51:41;15.90;55.90
24744;DHT22;12844;52.110;5.548;2024-02-26T14:54:07;15.90;55.90
24744;DHT22;12844;52.110;5.548;2024-02-26T14:56:33;15.90;55.90
24744;DHT22;12844;52.110;5.548;2024-02-26T14:58:58;15.80;55.90
24744;DHT22;12844;52.110;5.548;2024-02-26T15:01:24;15.90;55.90
24744;DHT22;12844;52.110;5.548;2024-02-26T15:03:50;15.90;55.90
24744;DHT22;12844;52.110;5.548;2024-02-26T15:06:15;15.80;56.60
24744;DHT22;12844;52.110;5.548;2024-02-26T15:08:41;15.90;55.80
24744;DHT22;12844;52.110;5.548;2024-02-26T15:11:06;15.90;55.80
24744;DHT22;12844;52.110;5.548;2024-02-26T15:13:33;15.90;55.80
24744;DHT22;12844;52.110;5.548;2024-02-26T15:15:59;15.90;56.40
24744;DHT22;12844;52.110;5.548;2024-02-26T15:18:24;15.90;55.80
24744;DHT22;12844;52.110;5.548;2024-02-26T15:20:51;15.90;55.80
24744;DHT22;12844;52.110;5.548;2024-02-26T15:23:16;15.90;55.70
24744;DHT22;12844;52.110;5.548;2024-02-26T15:25:42;15.80;55.80
24744;DHT22;12844;52.110;5.548;2024-02-26T15:28:08;15.80;55.90
24744;DHT22;12844;52.110;5.548;2024-02-26T15:30:36;15.80;55.90
24744;DHT22;12844;52.110;5.548;2024-02-26T15:33:02;15.80;55.90
24744;DHT22;12844;52.110;5.548;2024-02-26T15:35:28;15.80;55.90
24744;DHT22;12844;52.110;5.548;2024-02-26T15:37:54;15.80;55.90
24744;DHT22;12844;52.110;5.548;2024-02-26T15:40:20;15.80;56.00
24744;DHT22;12844;52.110;5.548;2024-02-26T15:42:47;15.80;55.90
24744;DHT22;12844;52.110;5.548;2024-02-26T15:45:12;15.80;55.90